Portada
METAR-TAF:

METAR-TAF

Aeroports :

Txità, Rússia

latitud: 52-05N, longitud: 113-29E, altitud: 685 m

Observació

L'informe es va fer fa 20 minuts, a les 20:00 UTC
Vent 8 kt del Nord/Nord-Oest
Temperatura -1°C
Humitat 64%
Pressió 1010 hPa
Visibilitat 10 km o més
Escasses núvols a una alçada de 5000 ft, Cumulonimbus.

METAR: UIAA 302000Z 34004MPS 9999 FEW050CB M01/M07 Q1010 R29/70D NOSIG RMK QFE699/0932

Hora: 05:20 (20:20 UTC)

Pronòstic

L'informe es va fer fa 3 hores i 20 minuts, a les 17:00 UTC
Pronòstic vàlid del 30 a les 18 UTC al 31 a les 18 UTC
Vent 10 kt del Nord/Nord-Est amb ràfegues de 19 kt
Visibilitat 10 km o més
Núvols disperses a una alçada de 4000 ft, Cumulonimbus.
Temporalment
l' 30 a les 18 UTC al 31 a les 09 UTC
Vent 6 kt del Nord-Oest amb ràfegues de 16 kt
Visibilitat: 3100 m
Cel ennuvolat a una alçada de 1400 ft, Cumulonimbus.
xàfecs de neu

TAF: UIAA 301700Z 3018/3118 02005G10MPS 9999 SCT040CB TEMPO 3018/3109 32003G08MPS 3100 -SHSN BKN014CB

Observacions i pronòstics meteorològics de més de 4000 aeroports (METAR i TAF).

Les estacions disponibles són els punts grocs i vermells al mapa.

Posi el ratolí al punt desitjat per veure el nom de l'estació.

Feu clic per veure les observacions i els pronòstics meteorològics.

Per canviar el mapa: feu clic els botons verds amb una creu de color negre per apropar; al botó verd amb un guió per allunyar la imatge; o en les fletxes verdes per a mapes adjacents.


METAR-TAF: